createdAt,value
2019-04-14T00:01:21.985Z,46.37
2019-04-14T00:04:16.406Z,43.13
2019-04-14T00:07:05.741Z,41.97
2019-04-14T00:10:15.978Z,51.17
2019-04-14T00:13:24.416Z,43.27
2019-04-14T00:16:12.484Z,45.53
2019-04-14T00:19:00.601Z,41.57
2019-04-14T00:21:30.378Z,51.27
2019-04-14T00:24:40.056Z,48.47
2019-04-14T00:27:48.636Z,48.70
2019-04-14T00:30:36.777Z,52.40
2019-04-14T00:33:25.718Z,47.63
2019-04-14T00:36:21.904Z,42.97
2019-04-14T00:39:03.325Z,52.33
2019-04-14T00:41:50.457Z,49.13
2019-04-14T00:44:27.628Z,46.57
2019-04-14T00:47:09.272Z,49.80
2019-04-14T00:49:50.883Z,42.27
2019-04-14T00:52:31.941Z,40.67
2019-04-14T00:55:13.997Z,22.33
2019-04-14T00:57:44.075Z,35.20
2019-04-14T01:00:39.085Z,35.00
2019-04-14T01:03:27.206Z,40.57
2019-04-14T01:06:16.361Z,29.90
2019-04-14T01:09:26.098Z,33.40
2019-04-14T01:12:34.681Z,34.00
2019-04-14T01:15:22.803Z,36.23
2019-04-14T01:18:10.873Z,42.67
2019-04-14T01:21:00.173Z,40.77
2019-04-14T01:24:09.572Z,42.07
2019-04-14T01:26:57.697Z,40.83
2019-04-14T01:29:45.819Z,34.10
2019-04-14T01:32:35.019Z,37.47
2019-04-14T01:35:44.346Z,35.17
2019-04-14T01:38:53.622Z,35.43
2019-04-14T01:42:02.901Z,45.57
2019-04-14T01:44:51.014Z,44.50
2019-04-14T01:47:39.950Z,45.27
2019-04-14T01:50:49.546Z,45.90
2019-04-14T01:53:59.587Z,40.30
2019-04-14T01:56:58.122Z,42.00
2019-04-14T01:59:56.852Z,50.43
2019-04-14T02:02:44.929Z,51.40
2019-04-14T02:05:34.208Z,35.63
2019-04-14T02:08:43.675Z,38.80
2019-04-14T02:11:33.446Z,44.40
2019-04-14T02:14:30.035Z,34.27
2019-04-14T02:17:35.606Z,42.43
2019-04-14T02:20:24.979Z,56.47
2019-04-14T02:23:34.406Z,42.50
2019-04-14T02:26:43.845Z,42.40
2019-04-14T02:29:32.034Z,50.80
2019-04-14T02:32:51.295Z,45.60
2019-04-14T02:39:06.127Z,56.50
2019-04-14T02:42:17.933Z,53.80
2019-04-14T02:44:57.723Z,50.07
2019-04-14T02:50:13.401Z,58.50
2019-04-14T02:53:01.200Z,65.77
2019-04-14T02:55:42.184Z,52.93
2019-04-14T02:58:28.849Z,62.87
2019-04-14T03:01:07.174Z,56.07
2019-04-14T03:03:51.809Z,57.70
2019-04-14T03:07:08.689Z,58.43
2019-04-14T03:09:24.648Z,64.73
2019-04-14T03:11:51.941Z,59.77
2019-04-14T03:14:40.188Z,60.80
2019-04-14T03:17:33.399Z,44.63
2019-04-14T03:20:14.066Z,61.63
2019-04-14T03:25:22.692Z,50.23
2019-04-14T03:27:59.096Z,56.43
2019-04-14T03:37:45.317Z,67.93
2019-04-14T03:40:34.378Z,48.07
2019-04-14T03:43:18.750Z,58.20
2019-04-14T03:45:59.296Z,64.20
2019-04-14T03:48:54.093Z,52.23
2019-04-14T03:53:59.010Z,65.73
2019-04-14T03:56:29.208Z,66.00
2019-04-14T03:59:17.658Z,60.13
2019-04-14T04:02:05.819Z,70.13
2019-04-14T04:04:53.864Z,65.53
2019-04-14T04:07:43.155Z,70.73
2019-04-14T04:10:51.636Z,69.23
2019-04-14T04:13:39.719Z,48.77
2019-04-14T04:16:29.008Z,54.93
2019-04-14T04:19:38.325Z,72.97
2019-04-14T04:22:47.649Z,68.87
2019-04-14T04:25:35.756Z,62.57
2019-04-14T04:28:23.896Z,67.83
2019-04-14T04:31:11.962Z,63.47
2019-04-14T04:34:01.043Z,44.43
2019-04-14T04:37:10.362Z,57.07
2019-04-14T04:39:39.782Z,57.13
2019-04-14T04:42:48.870Z,60.63
2019-04-14T04:45:36.950Z,61.40
2019-04-14T04:48:26.290Z,56.50
2019-04-14T04:51:35.640Z,47.00
2019-04-14T04:54:23.773Z,50.57
2019-04-14T04:56:53.666Z,57.03
2019-04-14T04:59:23.432Z,48.27
2019-04-14T05:02:33.144Z,60.43
2019-04-14T05:06:02.597Z,49.77
2019-04-14T05:08:50.810Z,51.10
2019-04-14T05:11:38.858Z,40.07
2019-04-14T05:14:26.718Z,57.10
2019-04-14T05:17:14.804Z,50.30
2019-04-14T05:20:05.115Z,43.70
2019-04-14T05:23:14.697Z,52.77
2019-04-14T05:26:24.405Z,37.40
2019-04-14T05:29:19.167Z,44.13
2019-04-14T05:32:07.252Z,40.10
2019-04-14T05:34:56.468Z,38.77
2019-04-14T05:38:06.125Z,37.50
2019-04-14T05:41:07.505Z,44.73
2019-04-14T05:43:55.124Z,44.63
2019-04-14T05:46:31.687Z,45.43
2019-04-14T05:49:24.475Z,45.83
2019-04-14T05:51:55.107Z,51.37
2019-04-14T05:54:36.231Z,47.43
2019-04-14T05:57:05.144Z,38.07
2019-04-14T05:59:33.911Z,53.80
2019-04-14T06:02:22.295Z,42.17
2019-04-14T06:05:11.766Z,44.70
2019-04-14T06:08:06.700Z,37.93
2019-04-14T06:10:54.958Z,51.70
2019-04-14T06:13:43.022Z,41.37
2019-04-14T06:16:31.097Z,37.33
2019-04-14T06:18:59.812Z,33.83
2019-04-14T06:21:47.894Z,37.37
2019-04-14T06:24:35.949Z,40.77
2019-04-14T06:27:24.178Z,43.17
2019-04-14T06:30:12.303Z,49.37
2019-04-14T06:33:00.398Z,48.03
2019-04-14T06:35:48.516Z,47.47
2019-04-14T06:38:36.602Z,49.73
2019-04-14T06:41:17.464Z,44.80
2019-04-14T06:43:58.828Z,37.83
2019-04-14T06:46:40.020Z,43.43
2019-04-14T06:49:21.288Z,50.00
2019-04-14T06:51:50.043Z,42.13
2019-04-14T06:54:38.180Z,37.77
2019-04-14T06:57:26.489Z,41.00
2019-04-14T07:00:14.668Z,45.63
2019-04-14T07:03:02.898Z,43.47
2019-04-14T07:05:51.199Z,48.40
2019-04-14T07:08:39.283Z,44.13
2019-04-14T07:11:27.353Z,35.73
2019-04-14T07:13:56.080Z,46.27
2019-04-14T07:16:44.124Z,37.07
2019-04-14T07:19:32.285Z,37.50
2019-04-14T07:22:20.641Z,38.67
2019-04-14T07:25:08.767Z,47.03
2019-04-14T07:27:56.982Z,40.87
2019-04-14T07:30:45.120Z,34.63
2019-04-14T07:33:33.334Z,41.90
2019-04-14T07:36:21.529Z,40.33
2019-04-14T07:39:09.625Z,38.13
2019-04-14T07:41:50.837Z,33.10
2019-04-14T07:44:32.018Z,37.03
2019-04-14T07:47:13.311Z,34.53
2019-04-14T07:49:54.718Z,41.40
2019-04-14T07:52:23.553Z,40.77
2019-04-14T07:55:11.762Z,43.67
2019-04-14T07:57:40.783Z,32.37
2019-04-14T08:00:09.722Z,46.67
2019-04-14T08:02:38.512Z,48.13
2019-04-14T08:05:26.662Z,34.23
2019-04-14T08:07:55.437Z,45.73
2019-04-14T08:10:43.582Z,35.87
2019-04-14T08:13:31.720Z,35.03
2019-04-14T08:16:19.883Z,32.37
2019-04-14T08:19:08.109Z,38.80
2019-04-14T08:21:56.225Z,43.30
2019-04-14T08:24:44.308Z,43.70
2019-04-14T08:27:32.426Z,43.60
2019-04-14T08:30:20.583Z,32.87
2019-04-14T08:33:08.709Z,35.43
2019-04-14T08:35:56.872Z,34.83
2019-04-14T08:38:44.988Z,33.93
2019-04-14T08:41:26.195Z,32.50
2019-04-14T08:44:07.456Z,36.53
2019-04-14T08:46:48.830Z,30.97
2019-04-14T08:49:30.142Z,29.17
2019-04-14T08:52:11.273Z,33.27
2019-04-14T08:54:52.572Z,24.73
2019-04-14T08:57:33.869Z,28.67
2019-04-14T09:00:14.586Z,33.90
2019-04-14T09:02:57.855Z,33.00
2019-04-14T09:05:38.516Z,36.67
2019-04-14T09:08:19.897Z,26.83
2019-04-14T09:11:00.891Z,32.77
2019-04-14T09:13:42.219Z,30.27
2019-04-14T09:16:22.833Z,25.07
2019-04-14T09:19:07.807Z,23.53
2019-04-14T09:21:46.898Z,24.77
2019-04-14T09:24:28.018Z,21.23
2019-04-14T09:26:57.078Z,21.53
2019-04-14T09:29:45.254Z,19.73
2019-04-14T09:32:33.341Z,23.00
2019-04-14T09:35:21.404Z,24.43
2019-04-14T09:38:09.563Z,21.20
2019-04-14T09:40:50.555Z,28.30
2019-04-14T09:43:31.914Z,24.63
2019-04-14T09:46:13.067Z,25.47
2019-04-14T09:48:54.522Z,21.53
2019-04-14T09:51:35.716Z,22.27
2019-04-14T09:54:16.895Z,20.87
2019-04-14T09:56:58.087Z,21.73
2019-04-14T09:59:27.730Z,19.23
2019-04-14T10:01:56.729Z,24.27
2019-04-14T10:04:25.505Z,21.50
2019-04-14T10:07:14.679Z,19.10
2019-04-14T10:10:03.078Z,19.80
2019-04-14T10:12:51.229Z,20.40
2019-04-14T10:15:39.570Z,22.83
2019-04-14T10:18:08.376Z,17.33
2019-04-14T10:20:56.444Z,21.93
2019-04-14T10:23:44.647Z,19.67
2019-04-14T10:26:32.813Z,22.17
2019-04-14T10:29:21.075Z,15.73
2019-04-14T10:32:09.255Z,19.53
2019-04-14T10:34:57.417Z,18.57
2019-04-14T10:37:47.240Z,20.27
2019-04-14T10:40:16.135Z,17.37
2019-04-14T10:42:44.974Z,20.07
2019-04-14T10:45:33.203Z,19.07
2019-04-14T10:48:02.049Z,15.80
2019-04-14T10:50:31.392Z,19.33
2019-04-14T10:53:20.256Z,19.30
2019-04-14T10:55:49.267Z,16.67
2019-04-14T10:58:37.334Z,18.07
2019-04-14T11:01:25.431Z,15.73
2019-04-14T11:04:13.710Z,17.03
2019-04-14T11:07:01.936Z,21.07
2019-04-14T11:09:50.111Z,20.27
2019-04-14T11:12:38.178Z,18.27
2019-04-14T11:15:26.424Z,21.20
2019-04-14T11:17:55.229Z,21.40
2019-04-14T11:20:43.407Z,16.97
2019-04-14T11:23:31.529Z,18.00
2019-04-14T11:26:19.682Z,16.73
2019-04-14T11:29:27.615Z,20.10
2019-04-14T11:32:35.670Z,15.20
2019-04-14T11:35:23.739Z,16.80
2019-04-14T11:38:31.733Z,16.43
2019-04-14T11:41:12.760Z,18.97
2019-04-14T11:43:54.123Z,17.33
2019-04-14T11:46:35.546Z,16.87
2019-04-14T11:49:16.063Z,18.50
2019-04-14T11:51:57.303Z,19.27
2019-04-14T11:54:38.696Z,20.37
2019-04-14T11:57:19.778Z,17.27
2019-04-14T12:00:00.288Z,16.40
2019-04-14T12:02:39.436Z,15.93
2019-04-14T12:05:27.552Z,17.27
2019-04-14T12:08:35.517Z,17.27
2019-04-14T12:11:23.671Z,18.97
2019-04-14T12:14:11.806Z,17.03
2019-04-14T12:17:00.067Z,17.57
2019-04-14T12:19:48.261Z,14.30
2019-04-14T12:22:36.419Z,16.90
2019-04-14T12:25:24.540Z,17.97
2019-04-14T12:28:32.484Z,19.30
2019-04-14T12:31:21.760Z,15.70
2019-04-14T12:34:30.221Z,13.40
2019-04-14T12:37:18.431Z,14.43
2019-04-14T12:40:07.359Z,22.00
2019-04-14T12:43:16.275Z,13.43
2019-04-14T12:46:06.168Z,17.53
2019-04-14T12:48:54.784Z,15.73
2019-04-14T12:51:42.841Z,19.33
2019-04-14T12:54:31.005Z,17.20
2019-04-14T12:57:19.239Z,15.10
2019-04-14T13:00:07.372Z,20.83
2019-04-14T13:03:15.501Z,13.03
2019-04-14T13:06:03.712Z,15.90
2019-04-14T13:08:51.976Z,17.23
2019-04-14T13:11:40.102Z,18.20
2019-04-14T13:14:28.292Z,19.07
2019-04-14T13:17:16.420Z,16.97
2019-04-14T13:20:05.829Z,15.13
2019-04-14T13:22:54.560Z,19.23
2019-04-14T13:25:42.747Z,17.57
2019-04-14T13:28:30.985Z,16.37
2019-04-14T13:31:19.112Z,13.67
2019-04-14T13:34:07.280Z,19.23
2019-04-14T13:36:37.867Z,14.90
2019-04-14T13:39:26.014Z,18.40
2019-04-14T13:42:07.367Z,14.73
2019-04-14T13:44:48.182Z,12.83
2019-04-14T13:47:29.434Z,16.67
2019-04-14T13:50:11.832Z,17.13
2019-04-14T13:52:46.567Z,15.07
2019-04-14T13:55:50.493Z,16.93
2019-04-14T13:58:19.302Z,18.97
2019-04-14T14:01:07.403Z,17.80
2019-04-14T14:03:55.626Z,18.70
2019-04-14T14:06:43.885Z,19.37
2019-04-14T14:09:32.083Z,16.47
2019-04-14T14:12:20.190Z,21.17
2019-04-14T14:15:08.450Z,19.57
2019-04-14T14:17:56.504Z,19.53
2019-04-14T14:20:44.587Z,22.50
2019-04-14T14:23:32.732Z,19.97
2019-04-14T14:26:20.902Z,19.13
2019-04-14T14:29:08.977Z,19.50
2019-04-14T14:31:57.117Z,20.80
2019-04-14T14:34:45.624Z,18.87
2019-04-14T14:37:26.871Z,22.70
2019-04-14T14:40:08.036Z,23.40
2019-04-14T14:42:49.138Z,24.33
2019-04-14T14:45:30.489Z,17.57
2019-04-14T14:48:11.852Z,16.60
2019-04-14T14:50:53.290Z,18.37
2019-04-14T14:53:34.773Z,18.83
2019-04-14T14:56:16.296Z,23.93
2019-04-14T14:58:56.809Z,18.47
2019-04-14T15:01:37.999Z,18.97
2019-04-14T15:04:19.366Z,22.33
2019-04-14T15:07:00.721Z,20.70
2019-04-14T15:09:41.796Z,26.83
2019-04-14T15:12:22.982Z,18.30
2019-04-14T15:15:04.084Z,18.57
2019-04-14T15:17:45.338Z,18.50
2019-04-14T15:20:26.638Z,18.97
2019-04-14T15:22:55.461Z,18.27
2019-04-14T15:25:24.325Z,22.70
2019-04-14T15:28:12.497Z,20.63
2019-04-14T15:31:00.637Z,20.77
2019-04-14T15:33:48.794Z,21.13
2019-04-14T15:36:36.930Z,17.37
2019-04-14T15:39:25.115Z,21.57
2019-04-14T15:42:06.519Z,16.23
2019-04-14T15:44:48.481Z,15.87
2019-04-14T15:47:29.720Z,28.30
2019-04-14T15:50:10.974Z,16.70
2019-04-14T15:52:51.861Z,20.10
2019-04-14T15:55:33.145Z,19.90
2019-04-14T15:58:14.333Z,18.63
2019-04-14T16:00:55.592Z,16.27
2019-04-14T16:03:36.920Z,15.67
2019-04-14T16:06:19.097Z,17.63
2019-04-14T16:09:00.305Z,16.77
2019-04-14T16:11:41.626Z,16.90
2019-04-14T16:14:22.543Z,16.57
2019-04-14T16:16:51.266Z,19.00
2019-04-14T16:19:39.417Z,21.10
2019-04-14T16:22:27.471Z,18.73
2019-04-14T16:24:56.371Z,15.40
2019-04-14T16:27:25.097Z,17.03
2019-04-14T16:29:54.080Z,16.07
2019-04-14T16:32:22.886Z,16.00
2019-04-14T16:35:11.047Z,15.80
2019-04-14T16:37:59.240Z,20.00
2019-04-14T16:40:40.640Z,19.20
2019-04-14T16:43:21.908Z,17.20
2019-04-14T16:46:03.261Z,20.43
2019-04-14T16:48:44.752Z,15.30
2019-04-14T16:51:25.926Z,15.57
2019-04-14T16:54:07.264Z,19.87
2019-04-14T16:56:48.683Z,17.73
2019-04-14T16:59:31.612Z,16.00
2019-04-14T17:02:13.047Z,15.80
2019-04-14T17:04:54.398Z,16.57
2019-04-14T17:07:35.601Z,16.10
2019-04-14T17:10:16.941Z,17.30
2019-04-14T17:12:58.303Z,19.63
2019-04-14T17:15:39.459Z,16.53
2019-04-14T17:18:20.678Z,19.17
2019-04-14T17:21:01.351Z,20.13
2019-04-14T17:23:42.581Z,18.80
2019-04-14T17:26:23.724Z,17.67
2019-04-14T17:29:04.986Z,15.57
2019-04-14T17:31:46.120Z,19.23
2019-04-14T17:34:27.238Z,20.83
2019-04-14T17:37:08.577Z,17.43
2019-04-14T17:39:50.027Z,19.67
2019-04-14T17:42:31.520Z,15.93
2019-04-14T17:45:12.674Z,20.03
2019-04-14T17:47:53.391Z,15.00
2019-04-14T17:50:40.548Z,15.83
2019-04-14T17:53:17.914Z,14.27
2019-04-14T17:56:07.845Z,12.93
2019-04-14T18:01:45.247Z,12.40
2019-04-14T18:04:33.394Z,16.10
2019-04-14T18:07:21.574Z,17.17
2019-04-14T18:10:09.776Z,17.03
2019-04-14T18:12:58.003Z,14.33
2019-04-14T18:15:46.201Z,14.63
2019-04-14T18:18:34.364Z,14.63
2019-04-14T18:21:22.496Z,17.30
2019-04-14T18:23:51.325Z,20.20
2019-04-14T18:26:39.986Z,13.87
2019-04-14T18:29:08.816Z,16.93
2019-04-14T18:31:56.941Z,14.80
2019-04-14T18:34:45.049Z,14.43
2019-04-14T18:37:33.185Z,17.40
2019-04-14T18:40:21.343Z,17.33
2019-04-14T18:43:22.010Z,13.97
2019-04-14T18:46:03.170Z,16.40
2019-04-14T18:48:44.379Z,18.57
2019-04-14T18:51:25.297Z,14.37
2019-04-14T18:53:54.063Z,18.47
2019-04-14T18:56:42.306Z,15.37
2019-04-14T18:59:11.371Z,18.10
2019-04-14T19:01:59.722Z,15.23
2019-04-14T19:04:48.186Z,17.57
2019-04-14T19:07:36.598Z,20.77
2019-04-14T19:10:25.144Z,14.90
2019-04-14T19:13:13.530Z,18.77
2019-04-14T19:16:01.845Z,12.13
2019-04-14T19:18:50.195Z,14.37
2019-04-14T19:21:38.525Z,18.07
2019-04-14T19:24:26.826Z,15.23
2019-04-14T19:27:14.980Z,17.70
2019-04-14T19:30:04.550Z,16.03
2019-04-14T19:32:52.651Z,14.43
2019-04-14T19:35:40.843Z,14.97
2019-04-14T19:38:28.999Z,18.13
2019-04-14T19:41:17.220Z,15.87
2019-04-14T19:44:05.355Z,15.60
2019-04-14T19:46:53.521Z,15.97
2019-04-14T19:49:41.690Z,16.27
2019-04-14T19:52:29.737Z,18.00
2019-04-14T19:55:20.519Z,18.13
2019-04-14T19:58:27.635Z,20.33
2019-04-14T20:01:15.846Z,18.03
2019-04-14T20:04:23.760Z,20.00
2019-04-14T20:07:31.716Z,16.93
2019-04-14T20:10:19.815Z,16.57
2019-04-14T20:13:27.868Z,18.00
2019-04-14T20:16:16.016Z,14.97
2019-04-14T20:19:10.229Z,14.73
2019-04-14T20:22:13.916Z,14.40
2019-04-14T20:25:02.049Z,15.33
2019-04-14T20:28:10.056Z,15.53
2019-04-14T20:30:58.180Z,14.47
2019-04-14T20:34:06.186Z,16.63
2019-04-14T20:36:54.343Z,16.83
2019-04-14T20:39:42.468Z,17.80
2019-04-14T20:42:23.038Z,15.80
2019-04-14T20:45:04.304Z,19.43
2019-04-14T20:47:45.568Z,16.60
2019-04-14T20:50:26.022Z,18.07
2019-04-14T20:53:07.116Z,19.33
2019-04-14T20:55:48.124Z,16.90
2019-04-14T20:58:29.488Z,17.40
2019-04-14T21:01:10.063Z,18.30
2019-04-14T21:03:51.152Z,15.97
2019-04-14T21:06:30.202Z,15.33
2019-04-14T21:09:18.267Z,13.10
2019-04-14T21:12:06.432Z,9.87
2019-04-14T21:14:54.556Z,9.27
2019-04-14T21:18:02.533Z,9.40
2019-04-14T21:21:10.540Z,11.17
2019-04-14T21:23:58.645Z,9.97
2019-04-14T21:27:06.626Z,9.97
2019-04-14T21:29:54.685Z,9.67
2019-04-14T21:32:42.731Z,9.57
2019-04-14T21:35:30.798Z,8.70
2019-04-14T21:38:38.710Z,10.43
2019-04-14T21:41:19.739Z,10.60
2019-04-14T21:43:48.488Z,9.23
2019-04-14T21:46:36.597Z,9.33
2019-04-14T21:49:24.702Z,10.13
2019-04-14T21:52:12.879Z,12.47
2019-04-14T21:55:20.817Z,10.80
2019-04-14T21:58:08.847Z,11.60
2019-04-14T22:01:16.348Z,12.60
2019-04-14T22:04:04.527Z,11.93
2019-04-14T22:06:52.588Z,13.37
2019-04-14T22:10:00.600Z,13.77
2019-04-14T22:12:29.398Z,10.47
2019-04-14T22:15:17.722Z,12.97
2019-04-14T22:18:05.952Z,12.13
2019-04-14T22:20:54.186Z,13.00
2019-04-14T22:23:23.096Z,13.57
2019-04-14T22:26:11.438Z,12.63
2019-04-14T22:29:02.168Z,13.47
2019-04-14T22:32:09.117Z,13.77
2019-04-14T22:34:57.353Z,13.20
2019-04-14T22:37:45.651Z,13.20
2019-04-14T22:40:33.865Z,16.33
2019-04-14T22:43:15.042Z,13.90
2019-04-14T22:45:56.577Z,14.67
2019-04-14T22:48:39.482Z,14.87
2019-04-14T22:51:20.212Z,16.17
2019-04-14T22:54:00.879Z,16.00
2019-04-14T22:56:42.151Z,15.93
2019-04-14T22:59:23.502Z,14.10
2019-04-14T23:02:05.049Z,16.67
2019-04-14T23:04:46.396Z,17.00
2019-04-14T23:07:27.931Z,17.47
2019-04-14T23:10:09.435Z,16.20
2019-04-14T23:12:51.232Z,16.30
2019-04-14T23:15:32.488Z,15.47
2019-04-14T23:18:13.795Z,14.43
2019-04-14T23:23:42.855Z,16.03
2019-04-14T23:26:23.826Z,15.93
2019-04-14T23:29:05.085Z,20.03
2019-04-14T23:31:46.529Z,16.70
2019-04-14T23:34:27.598Z,16.97
2019-04-14T23:37:08.921Z,15.23
2019-04-14T23:39:50.074Z,17.70
2019-04-14T23:42:31.396Z,17.67
2019-04-14T23:45:12.375Z,19.17
2019-04-14T23:47:52.986Z,16.63
2019-04-14T23:50:34.177Z,18.13
2019-04-14T23:53:15.380Z,15.67
2019-04-14T23:55:56.822Z,16.20
2019-04-14T23:58:38.166Z,16.20
